首页
METAR-TAF:

METAR-TAF

机场 :

利隆圭国际机场

利隆圭, 马拉维

纬度: 13-47S, 经度: 033-46E, 海拔: 1229米

当前天气观测

该预报发布于41分钟前的14:00 UTC
风速10节,风向东转东南
温度 25°C
湿度 44%
气压 1019 hPa
能见度10公里或以上
少量云层高于3500英尺

METAR: FWKI 251400Z 11010KT 9999 FEW035 25/12 Q1019 NOSIG

时间: 16:41 (14:41 UTC)

预报

该预报发布于4小时和41分钟前的10:00 UTC
预报有效从25日的 12点(UTC)到 26日的 18点(UTC)
风速6节,风向
能见度10公里或以上
少量云层高于3000英尺
成为
从 25日的 12点(UTC)到 25日的 14点(UTC)
少量云层高于4000英尺
从 25日的 1500点(UTC)
风速8节,风向东转东北
能见度10公里或以上
1500米以下无云,无积雨云
成为
从 26日的 07点(UTC)到 26日的 09点(UTC)
风速10节,风向北转东北
能见度10公里或以上
少量云层高于2500英尺
成为
从 26日的 10点(UTC)到 26日的 12点(UTC)
散云层高于3000英尺
从 26日的 1400点(UTC)
风速10节,风向东转东北
能见度10公里或以上
1500米以下无云,无积雨云

TAF: FWKI 251000Z 2512/2618 10006KT 9999 FEW030 BECMG 2512/2514 FEW040 FM251500 07008KT CAVOK BECMG 2607/2609 03010KT 9999 FEW025 BECMG 2610/2612 SCT030 FM261400 07010KT CAVOK

超过4000个机场的气象观测和天气预报(METAR&TAF报告)。

可查询的气象台以黄色和红色小点在地图上表示。

将鼠标移到小点上方,可查看气象台名称。

然后点击查看天气观测和预报。

如需切换地图:点击带黑十字的绿色按钮放大地图;点击带横线的绿色按钮缩小地图;或者点击绿色箭头查看邻近地区的地图。


METAR-TAF: